FBZ5092 SABE-SARP
Flight info
| Callsign | FBZ5092 |
|---|---|
| Flight time | 1h 17m |
| Altitude | 37000 |
| Route | LAND4B LANDA UN785 POS |
| Aircraft | B738/M-SDE2E3FGHIRWXY/LB1 |
Departure
| Time | 2026-04-12 02:57 |
|---|---|
| Airport | Aeroparque Jorge Newbery (SABE) |
Arrival
| Time | 2026-04-12 04:14 |
|---|---|
| Airport | Libertador Gral D Jose De San Martin Airport (SARP) |
| Time | Latitude | Longitude | Altitude | Speed | Heading |
|---|---|---|---|---|---|
| 2026-04-12 02:43 | -34.55760 | -58.41326 | 24 ft | 0 kts | 35° |
| 2026-04-12 02:49 | -34.55772 | -58.41336 | 28 ft | 3 kts | 33° |
| 2026-04-12 02:49 | -34.55789 | -58.41347 | 24 ft | 3 kts | 11° |
| 2026-04-12 02:49 | -34.55802 | -58.41347 | 26 ft | 2 kts | 311° |
| 2026-04-12 02:50 | -34.55810 | -58.41333 | 30 ft | 3 kts | 302° |
| 2026-04-12 02:50 | -34.55820 | -58.41314 | 30 ft | 2 kts | 301° |
| 2026-04-12 02:50 | -34.55822 | -58.41310 | 28 ft | 0 kts | 301° |
| 2026-04-12 02:51 | -34.55819 | -58.41315 | 30 ft | 3 kts | 301° |
| 2026-04-12 02:52 | -34.55789 | -58.41372 | 24 ft | 11 kts | 304° |
| 2026-04-12 02:52 | -34.55783 | -58.41382 | 25 ft | 12 kts | 305° |
| 2026-04-12 02:52 | -34.55736 | -58.41470 | 25 ft | 12 kts | 297° |
| 2026-04-12 02:53 | -34.55739 | -58.41562 | 28 ft | 12 kts | 221° |
| 2026-04-12 02:53 | -34.55781 | -58.41640 | 24 ft | 12 kts | 280° |
| 2026-04-12 02:53 | -34.55705 | -58.41811 | 25 ft | 11 kts | 305° |
| 2026-04-12 02:54 | -34.55609 | -58.41982 | 26 ft | 52 kts | 304° |
| 2026-04-12 02:54 | -34.55393 | -58.42336 | 26 ft | 49 kts | 306° |
| 2026-04-12 02:54 | -34.55399 | -58.42513 | 26 ft | 2 kts | 189° |
| 2026-04-12 02:54 | -34.55410 | -58.42502 | 25 ft | 0 kts | 131° |
| 2026-04-12 02:55 | -34.55447 | -58.42474 | 25 ft | 6 kts | 123° |
| 2026-04-12 02:55 | -34.55447 | -58.42472 | 25 ft | 0 kts | 123° |
| 2026-04-12 02:56 | -34.55612 | -58.42175 | 27 ft | 90 kts | 123° |
| 2026-04-12 02:56 | -34.56118 | -58.41269 | 105 ft | 161 kts | 122° |
| 2026-04-12 02:57 | -34.56809 | -58.40067 | 669 ft | 168 kts | 116° |
| 2026-04-12 02:57 | -34.57007 | -58.38715 | 1938 ft | 161 kts | 84° |
| 2026-04-12 02:57 | -34.56854 | -58.37257 | 2552 ft | 190 kts | 63° |
| 2026-04-12 02:57 | -34.55866 | -58.36101 | 2825 ft | 215 kts | 20° |
| 2026-04-12 02:58 | -34.54313 | -58.36091 | 3159 ft | 240 kts | 343° |
| 2026-04-12 02:58 | -34.52702 | -58.36805 | 3908 ft | 249 kts | 341° |
| 2026-04-12 02:58 | -34.51074 | -58.37505 | 5051 ft | 246 kts | 341° |
| 2026-04-12 02:58 | -34.49443 | -58.38169 | 6009 ft | 252 kts | 342° |
| 2026-04-12 02:59 | -34.47724 | -58.38831 | 6886 ft | 258 kts | 342° |
| 2026-04-12 02:59 | -34.46012 | -58.39462 | 7833 ft | 259 kts | 342° |
| 2026-04-12 02:59 | -34.44261 | -58.40086 | 8765 ft | 263 kts | 342° |
| 2026-04-12 02:59 | -34.42491 | -58.40700 | 9693 ft | 267 kts | 342° |
| 2026-04-12 03:00 | -34.40680 | -58.41316 | 10487 ft | 275 kts | 342° |
| 2026-04-12 03:00 | -34.38765 | -58.41962 | 10727 ft | 302 kts | 342° |
| 2026-04-12 03:00 | -34.36646 | -58.42669 | 10927 ft | 327 kts | 342° |
| 2026-04-12 03:00 | -34.34388 | -58.43414 | 11364 ft | 342 kts | 343° |
| 2026-04-12 03:01 | -34.32076 | -58.44169 | 12090 ft | 347 kts | 342° |
| 2026-04-12 03:01 | -34.29719 | -58.44935 | 12875 ft | 351 kts | 342° |
| 2026-04-12 03:01 | -34.27355 | -58.45701 | 13635 ft | 355 kts | 342° |
| 2026-04-12 03:01 | -34.24949 | -58.46481 | 14315 ft | 360 kts | 343° |
| 2026-04-12 03:02 | -34.22520 | -58.47267 | 15027 ft | 362 kts | 343° |
| 2026-04-12 03:02 | -34.20077 | -58.48057 | 15748 ft | 365 kts | 343° |
| 2026-04-12 03:02 | -34.17618 | -58.48853 | 16469 ft | 368 kts | 343° |
| 2026-04-12 03:02 | -34.15128 | -58.49657 | 17177 ft | 371 kts | 343° |
| 2026-04-12 03:03 | -34.12625 | -58.50466 | 17858 ft | 374 kts | 343° |
| 2026-04-12 03:03 | -34.10101 | -58.51281 | 18511 ft | 377 kts | 343° |
| 2026-04-12 03:03 | -34.07552 | -58.52104 | 19089 ft | 380 kts | 343° |
| 2026-04-12 03:03 | -34.04997 | -58.52929 | 19670 ft | 384 kts | 343° |
| 2026-04-12 03:04 | -34.02401 | -58.53766 | 20253 ft | 387 kts | 343° |
| 2026-04-12 03:04 | -33.99790 | -58.54607 | 20807 ft | 390 kts | 343° |
| 2026-04-12 03:04 | -33.97154 | -58.55456 | 21348 ft | 393 kts | 343° |
| 2026-04-12 03:04 | -33.94504 | -58.56309 | 21882 ft | 397 kts | 342° |
| 2026-04-12 03:05 | -33.91821 | -58.57154 | 22404 ft | 400 kts | 345° |
| 2026-04-12 03:05 | -33.89053 | -58.57665 | 22896 ft | 407 kts | 353° |
| 2026-04-12 03:05 | -33.86199 | -58.57807 | 23385 ft | 411 kts | 355° |
| 2026-04-12 03:05 | -33.83297 | -58.57911 | 23819 ft | 414 kts | 355° |
| 2026-04-12 03:06 | -33.80481 | -58.58006 | 24249 ft | 416 kts | 355° |
| 2026-04-12 03:06 | -33.77510 | -58.58111 | 24704 ft | 418 kts | 355° |
| 2026-04-12 03:06 | -33.74635 | -58.58221 | 25127 ft | 419 kts | 354° |
| 2026-04-12 03:06 | -33.71672 | -58.58342 | 25559 ft | 421 kts | 354° |
| 2026-04-12 03:07 | -33.68740 | -58.58466 | 25964 ft | 423 kts | 354° |
| 2026-04-12 03:07 | -33.65794 | -58.58594 | 26365 ft | 425 kts | 354° |
| 2026-04-12 03:07 | -33.62824 | -58.58723 | 26763 ft | 427 kts | 354° |
| 2026-04-12 03:07 | -33.59855 | -58.58853 | 27137 ft | 428 kts | 354° |
| 2026-04-12 03:08 | -33.56842 | -58.58985 | 27521 ft | 430 kts | 354° |
| 2026-04-12 03:08 | -33.53839 | -58.59116 | 27885 ft | 432 kts | 354° |
| 2026-04-12 03:08 | -33.50789 | -58.59249 | 28221 ft | 434 kts | 354° |
| 2026-04-12 03:08 | -33.47769 | -58.59380 | 28565 ft | 435 kts | 354° |
| 2026-04-12 03:09 | -33.44731 | -58.59512 | 28898 ft | 437 kts | 354° |
| 2026-04-12 03:09 | -33.41687 | -58.59644 | 29225 ft | 439 kts | 354° |
| 2026-04-12 03:09 | -33.38636 | -58.59776 | 29632 ft | 438 kts | 354° |
| 2026-04-12 03:09 | -33.35600 | -58.59906 | 30171 ft | 435 kts | 354° |
| 2026-04-12 03:10 | -33.32582 | -58.60035 | 30647 ft | 431 kts | 353° |
| 2026-04-12 03:10 | -33.29590 | -58.60164 | 31032 ft | 430 kts | 353° |
| 2026-04-12 03:10 | -33.26561 | -58.60296 | 31373 ft | 430 kts | 353° |
| 2026-04-12 03:10 | -33.23614 | -58.60424 | 31736 ft | 429 kts | 353° |
| 2026-04-12 03:11 | -33.20640 | -58.60552 | 32138 ft | 427 kts | 353° |
| 2026-04-12 03:11 | -33.17652 | -58.60681 | 32530 ft | 425 kts | 353° |
| 2026-04-12 03:11 | -33.14689 | -58.60809 | 32870 ft | 424 kts | 353° |
| 2026-04-12 03:11 | -33.11739 | -58.60937 | 33185 ft | 424 kts | 352° |
| 2026-04-12 03:12 | -33.08789 | -58.61064 | 33537 ft | 423 kts | 352° |
| 2026-04-12 03:12 | -33.05857 | -58.61190 | 33901 ft | 422 kts | 352° |
| 2026-04-12 03:12 | -33.03908 | -58.61267 | 34097 ft | 423 kts | 354° |
| 2026-04-12 03:12 | -32.99983 | -58.60916 | 34378 ft | 432 kts | 3° |
| 2026-04-12 03:13 | -32.97981 | -58.60404 | 34501 ft | 439 kts | 9° |
| 2026-04-12 03:13 | -32.95044 | -58.59349 | 34730 ft | 441 kts | 10° |
| 2026-04-12 03:13 | -32.92075 | -58.58239 | 34960 ft | 442 kts | 11° |
| 2026-04-12 03:13 | -32.89174 | -58.57147 | 35167 ft | 443 kts | 11° |
| 2026-04-12 03:14 | -32.86190 | -58.56033 | 35384 ft | 444 kts | 10° |
| 2026-04-12 03:14 | -32.83281 | -58.54958 | 35612 ft | 444 kts | 10° |
| 2026-04-12 03:14 | -32.80325 | -58.53874 | 35819 ft | 445 kts | 10° |
| 2026-04-12 03:14 | -32.77278 | -58.52764 | 36032 ft | 446 kts | 10° |
| 2026-04-12 03:15 | -32.74314 | -58.51688 | 36243 ft | 446 kts | 10° |
| 2026-04-12 03:15 | -32.71343 | -58.50611 | 36453 ft | 447 kts | 10° |
| 2026-04-12 03:15 | -32.68364 | -58.49532 | 36669 ft | 447 kts | 10° |
| 2026-04-12 03:15 | -32.65394 | -58.48457 | 36885 ft | 448 kts | 10° |
| 2026-04-12 03:16 | -32.62460 | -58.47395 | 37031 ft | 449 kts | 10° |
| 2026-04-12 03:16 | -32.59414 | -58.46295 | 37015 ft | 451 kts | 10° |
| 2026-04-12 03:16 | -32.53426 | -58.44129 | 37020 ft | 448 kts | 10° |
| 2026-04-12 03:17 | -32.47487 | -58.41983 | 37020 ft | 445 kts | 10° |
| 2026-04-12 03:17 | -32.41590 | -58.39858 | 37026 ft | 442 kts | 9° |
| 2026-04-12 03:18 | -32.35700 | -58.37738 | 37029 ft | 441 kts | 9° |
| 2026-04-12 03:18 | -32.29830 | -58.35628 | 37027 ft | 441 kts | 9° |
| 2026-04-12 03:19 | -32.23941 | -58.33507 | 37026 ft | 443 kts | 9° |
| 2026-04-12 03:19 | -32.18042 | -58.31381 | 37031 ft | 445 kts | 9° |
| 2026-04-12 03:20 | -32.12114 | -58.29248 | 37032 ft | 446 kts | 9° |
| 2026-04-12 03:20 | -32.06148 | -58.27104 | 37034 ft | 448 kts | 9° |
| 2026-04-12 03:21 | -32.00146 | -58.24949 | 37035 ft | 449 kts | 9° |
| 2026-04-12 03:21 | -31.94170 | -58.22807 | 37034 ft | 450 kts | 9° |
| 2026-04-12 03:22 | -31.88085 | -58.20629 | 37029 ft | 450 kts | 9° |
| 2026-04-12 03:22 | -31.82071 | -58.18480 | 37039 ft | 454 kts | 9° |
| 2026-04-12 03:23 | -31.75938 | -58.16295 | 37037 ft | 460 kts | 9° |
| 2026-04-12 03:23 | -31.69794 | -58.14106 | 37037 ft | 463 kts | 9° |
| 2026-04-12 03:24 | -31.63635 | -58.11910 | 37021 ft | 462 kts | 9° |
| 2026-04-12 03:24 | -31.57546 | -58.09742 | 37022 ft | 461 kts | 9° |
| 2026-04-12 03:25 | -31.51362 | -58.07548 | 37024 ft | 461 kts | 9° |
| 2026-04-12 03:25 | -31.45270 | -58.05389 | 37021 ft | 461 kts | 9° |
| 2026-04-12 03:26 | -31.39089 | -58.03201 | 37017 ft | 461 kts | 9° |
| 2026-04-12 03:26 | -31.32985 | -58.01044 | 36874 ft | 463 kts | 9° |
| 2026-04-12 03:27 | -31.29869 | -57.99942 | 36981 ft | 460 kts | 8° |
| 2026-04-12 03:27 | -31.26801 | -57.98858 | 37016 ft | 461 kts | 8° |
| 2026-04-12 03:27 | -31.20649 | -57.96692 | 37013 ft | 462 kts | 9° |
| 2026-04-12 03:28 | -31.14479 | -57.94518 | 37018 ft | 463 kts | 8° |
| 2026-04-12 03:28 | -31.08312 | -57.92350 | 37015 ft | 462 kts | 8° |
| 2026-04-12 03:29 | -31.02123 | -57.90177 | 37019 ft | 462 kts | 8° |
| 2026-04-12 03:29 | -30.95931 | -57.88007 | 37032 ft | 462 kts | 8° |
| 2026-04-12 03:30 | -30.89754 | -57.85844 | 37032 ft | 462 kts | 8° |
| 2026-04-12 03:30 | -30.83596 | -57.83690 | 37036 ft | 462 kts | 8° |
| 2026-04-12 03:31 | -30.77437 | -57.81539 | 37035 ft | 463 kts | 8° |
| 2026-04-12 03:31 | -30.71271 | -57.79388 | 37031 ft | 463 kts | 8° |
| 2026-04-12 03:32 | -30.65117 | -57.77238 | 37031 ft | 464 kts | 8° |
| 2026-04-12 03:32 | -30.58915 | -57.75061 | 37034 ft | 464 kts | 8° |
| 2026-04-12 03:33 | -30.52727 | -57.72891 | 37036 ft | 465 kts | 8° |
| 2026-04-12 03:33 | -30.46539 | -57.70725 | 37029 ft | 465 kts | 8° |
| 2026-04-12 03:34 | -30.40324 | -57.68553 | 37026 ft | 466 kts | 8° |
| 2026-04-12 03:34 | -30.34114 | -57.66385 | 37028 ft | 466 kts | 8° |
| 2026-04-12 03:35 | -30.27898 | -57.64212 | 37030 ft | 468 kts | 9° |
| 2026-04-12 03:35 | -30.21866 | -57.61091 | 37037 ft | 480 kts | 19° |
| 2026-04-12 03:36 | -30.15916 | -57.57450 | 37026 ft | 481 kts | 19° |
| 2026-04-12 03:36 | -30.10041 | -57.53861 | 37024 ft | 481 kts | 19° |
| 2026-04-12 03:37 | -30.04058 | -57.50267 | 37028 ft | 481 kts | 19° |
| 2026-04-12 03:37 | -29.98105 | -57.46721 | 37020 ft | 481 kts | 19° |
| 2026-04-12 03:38 | -29.92157 | -57.43186 | 37022 ft | 481 kts | 19° |
| 2026-04-12 03:38 | -29.86244 | -57.39674 | 37016 ft | 481 kts | 19° |
| 2026-04-12 03:39 | -29.81264 | -57.36719 | 37023 ft | 481 kts | 19° |
| 2026-04-12 03:39 | -29.75307 | -57.33188 | 37022 ft | 481 kts | 19° |
| 2026-04-12 03:40 | -29.69349 | -57.29662 | 37018 ft | 482 kts | 19° |
| 2026-04-12 03:40 | -29.63388 | -57.26138 | 37016 ft | 482 kts | 19° |
| 2026-04-12 03:41 | -29.57420 | -57.22615 | 37016 ft | 482 kts | 19° |
| 2026-04-12 03:41 | -29.51449 | -57.19095 | 37021 ft | 483 kts | 19° |
| 2026-04-12 03:42 | -29.45462 | -57.15570 | 37023 ft | 483 kts | 19° |
| 2026-04-12 03:42 | -29.39478 | -57.12052 | 37025 ft | 484 kts | 19° |
| 2026-04-12 03:43 | -29.33480 | -57.08529 | 37032 ft | 484 kts | 19° |
| 2026-04-12 03:43 | -29.27484 | -57.05013 | 37031 ft | 485 kts | 19° |
| 2026-04-12 03:44 | -29.21473 | -57.01492 | 37030 ft | 485 kts | 19° |
| 2026-04-12 03:44 | -29.15463 | -56.97976 | 37029 ft | 485 kts | 19° |
| 2026-04-12 03:45 | -29.09454 | -56.94467 | 37038 ft | 485 kts | 19° |
| 2026-04-12 03:45 | -29.03435 | -56.90971 | 37025 ft | 485 kts | 19° |
| 2026-04-12 03:46 | -28.97425 | -56.87486 | 37027 ft | 484 kts | 19° |
| 2026-04-12 03:46 | -28.91440 | -56.84018 | 37030 ft | 483 kts | 19° |
| 2026-04-12 03:47 | -28.85485 | -56.80565 | 36888 ft | 473 kts | 19° |
| 2026-04-12 03:47 | -28.82553 | -56.78866 | 36340 ft | 469 kts | 19° |
| 2026-04-12 03:47 | -28.79656 | -56.77190 | 35734 ft | 467 kts | 18° |
| 2026-04-12 03:48 | -28.76753 | -56.75516 | 35061 ft | 468 kts | 18° |
| 2026-04-12 03:48 | -28.73843 | -56.73840 | 34374 ft | 469 kts | 19° |
| 2026-04-12 03:48 | -28.70930 | -56.72163 | 33572 ft | 471 kts | 19° |
| 2026-04-12 03:48 | -28.67993 | -56.70473 | 32782 ft | 471 kts | 19° |
| 2026-04-12 03:49 | -28.65071 | -56.68791 | 32000 ft | 472 kts | 19° |
| 2026-04-12 03:49 | -28.62144 | -56.67106 | 31210 ft | 472 kts | 20° |
| 2026-04-12 03:49 | -28.59206 | -56.65415 | 30420 ft | 473 kts | 20° |
| 2026-04-12 03:49 | -28.56285 | -56.63733 | 29808 ft | 468 kts | 20° |
| 2026-04-12 03:50 | -28.53405 | -56.62073 | 29141 ft | 463 kts | 20° |
| 2026-04-12 03:50 | -28.50551 | -56.60430 | 28545 ft | 457 kts | 20° |
| 2026-04-12 03:50 | -28.47726 | -56.58806 | 27936 ft | 451 kts | 20° |
| 2026-04-12 03:50 | -28.44936 | -56.57204 | 27353 ft | 446 kts | 21° |
| 2026-04-12 03:51 | -28.42183 | -56.55626 | 26773 ft | 442 kts | 21° |
| 2026-04-12 03:51 | -28.39448 | -56.54059 | 26197 ft | 438 kts | 21° |
| 2026-04-12 03:51 | -28.36741 | -56.52510 | 25631 ft | 434 kts | 21° |
| 2026-04-12 03:51 | -28.34051 | -56.50971 | 25068 ft | 431 kts | 21° |
| 2026-04-12 03:52 | -28.31389 | -56.49450 | 24492 ft | 428 kts | 21° |
| 2026-04-12 03:52 | -28.28740 | -56.47937 | 23914 ft | 426 kts | 21° |
| 2026-04-12 03:52 | -28.26091 | -56.46424 | 23279 ft | 424 kts | 21° |
| 2026-04-12 03:52 | -28.23473 | -56.44929 | 22667 ft | 420 kts | 21° |
| 2026-04-12 03:53 | -28.20870 | -56.43444 | 22076 ft | 417 kts | 21° |
| 2026-04-12 03:53 | -28.18293 | -56.41973 | 21510 ft | 413 kts | 21° |
| 2026-04-12 03:53 | -28.15744 | -56.40519 | 20961 ft | 409 kts | 21° |
| 2026-04-12 03:53 | -28.13208 | -56.39074 | 20400 ft | 406 kts | 21° |
| 2026-04-12 03:54 | -28.10691 | -56.37641 | 19853 ft | 403 kts | 21° |
| 2026-04-12 03:54 | -28.08193 | -56.36219 | 19288 ft | 401 kts | 21° |
| 2026-04-12 03:54 | -28.05705 | -56.34804 | 18731 ft | 399 kts | 22° |
| 2026-04-12 03:54 | -28.03236 | -56.33401 | 18144 ft | 397 kts | 21° |
| 2026-04-12 03:55 | -28.00770 | -56.32000 | 17540 ft | 395 kts | 21° |
| 2026-04-12 03:55 | -27.98328 | -56.30612 | 16971 ft | 391 kts | 21° |
| 2026-04-12 03:55 | -27.95910 | -56.29238 | 16428 ft | 387 kts | 21° |
| 2026-04-12 03:55 | -27.93509 | -56.27876 | 15891 ft | 384 kts | 21° |
| 2026-04-12 03:56 | -27.91129 | -56.26526 | 15354 ft | 381 kts | 21° |
| 2026-04-12 03:56 | -27.88773 | -56.25190 | 14823 ft | 378 kts | 21° |
| 2026-04-12 03:56 | -27.86428 | -56.23862 | 14268 ft | 376 kts | 21° |
| 2026-04-12 03:56 | -27.84100 | -56.22543 | 13710 ft | 374 kts | 21° |
| 2026-04-12 03:57 | -27.81793 | -56.21238 | 13134 ft | 371 kts | 21° |
| 2026-04-12 03:57 | -27.79491 | -56.19935 | 12587 ft | 367 kts | 21° |
| 2026-04-12 03:57 | -27.77215 | -56.18648 | 12042 ft | 364 kts | 21° |
| 2026-04-12 03:57 | -27.74964 | -56.17375 | 11515 ft | 360 kts | 21° |
| 2026-04-12 03:58 | -27.72731 | -56.16114 | 10994 ft | 357 kts | 21° |
| 2026-04-12 03:58 | -27.70551 | -56.14880 | 10799 ft | 344 kts | 21° |
| 2026-04-12 03:58 | -27.68451 | -56.13691 | 10634 ft | 332 kts | 21° |
| 2026-04-12 03:58 | -27.66423 | -56.12544 | 10487 ft | 320 kts | 21° |
| 2026-04-12 03:59 | -27.64463 | -56.11438 | 10345 ft | 309 kts | 21° |
| 2026-04-12 03:59 | -27.62572 | -56.10371 | 10215 ft | 299 kts | 21° |
| 2026-04-12 03:59 | -27.60745 | -56.09342 | 10095 ft | 289 kts | 21° |
| 2026-04-12 03:59 | -27.58978 | -56.08346 | 10008 ft | 278 kts | 21° |
| 2026-04-12 04:00 | -27.57275 | -56.07389 | 9583 ft | 281 kts | 21° |
| 2026-04-12 04:00 | -27.55533 | -56.06413 | 9234 ft | 280 kts | 21° |
| 2026-04-12 04:00 | -27.53770 | -56.05423 | 8918 ft | 278 kts | 21° |
| 2026-04-12 04:00 | -27.52065 | -56.04465 | 8590 ft | 276 kts | 22° |
| 2026-04-12 04:01 | -27.50353 | -56.03502 | 8288 ft | 274 kts | 22° |
| 2026-04-12 04:01 | -27.48653 | -56.02547 | 7974 ft | 272 kts | 21° |
| 2026-04-12 04:01 | -27.46944 | -56.01586 | 7663 ft | 271 kts | 22° |
| 2026-04-12 04:01 | -27.45259 | -56.00639 | 7349 ft | 270 kts | 22° |
| 2026-04-12 04:02 | -27.43604 | -55.99710 | 7049 ft | 269 kts | 22° |
| 2026-04-12 04:02 | -27.40254 | -55.97830 | 6418 ft | 268 kts | 22° |
| 2026-04-12 04:02 | -27.38549 | -55.96895 | 6088 ft | 266 kts | 19° |
| 2026-04-12 04:03 | -27.36821 | -55.96308 | 5781 ft | 262 kts | 10° |
| 2026-04-12 04:03 | -27.35042 | -55.95876 | 5479 ft | 260 kts | 9° |
| 2026-04-12 04:03 | -27.33290 | -55.95472 | 5172 ft | 259 kts | 9° |
| 2026-04-12 04:03 | -27.31523 | -55.95055 | 4876 ft | 257 kts | 10° |
| 2026-04-12 04:04 | -27.29794 | -55.94633 | 4730 ft | 249 kts | 11° |
| 2026-04-12 04:04 | -27.28120 | -55.94215 | 4583 ft | 242 kts | 11° |
| 2026-04-12 04:04 | -27.26513 | -55.93809 | 4394 ft | 234 kts | 11° |
| 2026-04-12 04:04 | -27.24946 | -55.93410 | 4283 ft | 227 kts | 11° |
| 2026-04-12 04:05 | -27.23437 | -55.93025 | 4182 ft | 218 kts | 11° |
| 2026-04-12 04:05 | -27.21982 | -55.92667 | 4109 ft | 209 kts | 6° |
| 2026-04-12 04:05 | -27.20606 | -55.92958 | 3913 ft | 205 kts | 329° |
| 2026-04-12 04:05 | -27.19705 | -55.94177 | 3723 ft | 210 kts | 292° |
| 2026-04-12 04:06 | -27.19714 | -55.95819 | 3550 ft | 217 kts | 252° |
| 2026-04-12 04:06 | -27.20704 | -55.97066 | 3339 ft | 220 kts | 206° |
| 2026-04-12 04:06 | -27.22154 | -55.97371 | 3161 ft | 211 kts | 181° |
| 2026-04-12 04:06 | -27.23620 | -55.97333 | 2934 ft | 209 kts | 176° |
| 2026-04-12 04:07 | -27.25063 | -55.97282 | 2729 ft | 204 kts | 178° |
| 2026-04-12 04:07 | -27.26457 | -55.97252 | 2605 ft | 195 kts | 178° |
| 2026-04-12 04:07 | -27.27799 | -55.97230 | 2426 ft | 188 kts | 178° |
| 2026-04-12 04:07 | -27.29043 | -55.97210 | 2190 ft | 169 kts | 178° |
| 2026-04-12 04:08 | -27.30129 | -55.97567 | 2037 ft | 165 kts | 218° |
| 2026-04-12 04:08 | -27.30674 | -55.98615 | 1790 ft | 153 kts | 274° |
| 2026-04-12 04:08 | -27.30210 | -55.99491 | 1809 ft | 132 kts | 341° |
| 2026-04-12 04:08 | -27.29373 | -55.99320 | 1820 ft | 131 kts | 44° |
| 2026-04-12 04:09 | -27.29216 | -55.98321 | 1827 ft | 145 kts | 106° |
| 2026-04-12 04:09 | -27.30027 | -55.97614 | 1847 ft | 157 kts | 160° |
| 2026-04-12 04:09 | -27.31073 | -55.97200 | 1677 ft | 163 kts | 160° |
| 2026-04-12 04:09 | -27.32330 | -55.97133 | 1211 ft | 223 kts | 181° |
| 2026-04-12 04:10 | -27.34129 | -55.97120 | 910 ft | 283 kts | 175° |
| 2026-04-12 04:10 | -27.36092 | -55.97068 | 584 ft | 282 kts | 181° |
| 2026-04-12 04:10 | -27.37991 | -55.97094 | 455 ft | 259 kts | 178° |
| 2026-04-12 04:10 | -27.39743 | -55.97042 | 574 ft | 223 kts | 182° |
| 2026-04-12 04:11 | -27.40858 | -55.97760 | 1498 ft | 219 kts | 250° |
| 2026-04-12 04:11 | -27.41134 | -55.99705 | 1158 ft | 264 kts | 290° |
| 2026-04-12 04:11 | -27.39922 | -56.00984 | 1374 ft | 232 kts | 351° |
| 2026-04-12 04:11 | -27.38370 | -56.01044 | 1254 ft | 216 kts | 4° |
| 2026-04-12 04:12 | -27.36901 | -56.00943 | 948 ft | 204 kts | 5° |
| 2026-04-12 04:12 | -27.35581 | -56.00845 | 886 ft | 183 kts | 5° |
| 2026-04-12 04:12 | -27.34359 | -56.00695 | 766 ft | 166 kts | 21° |
| 2026-04-12 04:12 | -27.33632 | -55.99898 | 599 ft | 142 kts | 78° |
| 2026-04-12 04:13 | -27.33782 | -55.98905 | 514 ft | 126 kts | 126° |
| 2026-04-12 04:13 | -27.34332 | -55.98069 | 998 ft | 125 kts | 124° |
| 2026-04-12 04:13 | -27.34982 | -55.97327 | 936 ft | 144 kts | 142° |
| 2026-04-12 04:13 | -27.35932 | -55.97094 | 813 ft | 148 kts | 185° |
| 2026-04-12 04:14 | -27.36934 | -55.97095 | 578 ft | 137 kts | 176° |
| 2026-04-12 04:14 | -27.37873 | -55.97068 | 420 ft | 132 kts | 176° |
| 2026-04-12 04:14 | -27.38647 | -55.97052 | 416 ft | 81 kts | 179° |
| 2026-04-12 04:14 | -27.38914 | -55.97049 | 418 ft | 21 kts | 178° |
| 2026-04-12 04:15 | -27.38936 | -55.97040 | 421 ft | 2 kts | 143° |
| 2026-04-12 04:15 | -27.38943 | -55.97033 | 411 ft | 2 kts | 143° |
| 2026-04-12 04:15 | -27.38986 | -55.97001 | 416 ft | 10 kts | 158° |
| 2026-04-12 04:15 | -27.38968 | -55.97073 | 421 ft | 30 kts | 5° |
| 2026-04-12 04:16 | -27.38460 | -55.97061 | 415 ft | 123 kts | 356° |
| 2026-04-12 04:16 | -27.37319 | -55.96973 | 561 ft | 197 kts | 16° |
| 2026-04-12 04:16 | -27.36135 | -55.96194 | 815 ft | 202 kts | 30° |
| 2026-04-12 04:16 | -27.35205 | -55.96802 | 778 ft | 220 kts | 245° |
| 2026-04-12 04:17 | -27.36443 | -55.97542 | 675 ft | 216 kts | 173° |
| 2026-04-12 04:17 | -27.38104 | -55.97166 | 512 ft | 282 kts | 167° |
| 2026-04-12 04:17 | -27.39722 | -55.95890 | 1307 ft | 250 kts | 134° |
| 2026-04-12 04:17 | -27.40985 | -55.96548 | 1219 ft | 322 kts | 297° |
| 2026-04-12 04:18 | -27.39010 | -55.96683 | 728 ft | 353 kts | 17° |
| 2026-04-12 04:18 | -27.37441 | -55.95037 | 2101 ft | 207 kts | 77° |
| 2026-04-12 04:18 | -27.37244 | -55.94486 | 7390 ft | 49 kts | 16° |
| 2026-04-12 04:18 | -27.36909 | -55.94042 | 7682 ft | 115 kts | 63° |
| 2026-04-12 04:19 | -27.36593 | -55.94252 | 1851 ft | 368 kts | 277° |
| 2026-04-12 04:19 | -27.38299 | -55.96558 | 818 ft | 404 kts | 197° |
| 2026-04-12 04:19 | -27.40900 | -55.96957 | 2114 ft | 362 kts | 216° |
| 2026-04-12 04:19 | -27.40363 | -55.98733 | 1139 ft | 377 kts | 33° |
| 2026-04-12 04:20 | -27.38930 | -55.96227 | 928 ft | 307 kts | 67° |
| 2026-04-12 04:20 | -27.38444 | -55.95232 | 6523 ft | 173 kts | 48° |
| 2026-04-12 04:20 | -27.37545 | -55.94006 | 5118 ft | 202 kts | 13° |
| 2026-04-12 04:20 | -27.38121 | -55.95664 | 811 ft | 400 kts | 219° |
| 2026-04-12 04:21 | -27.39483 | -55.97604 | 435 ft | 132 kts | 322° |
| 2026-04-12 04:21 | -27.39450 | -55.97811 | 413 ft | 0 kts | 314° |